Archival Weather

Chicago O'Hare International

Chicago, Illinois (KORD)

Report from: Saturday, May 20, 2023 8:51 PM CDT
Current time: Sunday, February 25, 2024 4:18 PM CST

Current weather – Weather history – Daily summaries
Weather forecast

Temperature17.8°C (64.0°F)
Dew point3.9°C (39.0°F)
Winds 7 kts (3.6 m/s, 8.1 mph) South-Southeast (150°)
Visibility10 mi. (16.1 km)
Clouds Few clouds 25,000 ft. (7,620 m)
Altimeter30.12 in.Hg (1020 mB)
Relative humidity40 %
Density altitude226 ft. (69 m)
Sea-level pressure102.0 kPa (1020 mB, 30.12 in.Hg)
Remarks Automated weather observing station with precipitation discriminator
Flight conditions Visual Meteorological Conditions
Raw dataKORD 210151Z 15007KT 10SM FEW250 18/04 A3012 RMK AO2 SLP199 T01780039
An error has occurred. This application may no longer respond until reloaded. Reload 🗙